createdAt,value
2018-08-23T00:01:10.027Z,0.00
2018-08-23T00:02:09.942Z,0.00
2018-08-23T00:04:02.700Z,0.00
2018-08-23T00:05:02.626Z,0.00
2018-08-23T00:06:55.398Z,0.00
2018-08-23T00:07:55.316Z,0.00
2018-08-23T00:09:48.312Z,0.00
2018-08-23T00:10:48.240Z,0.00
2018-08-23T00:12:41.250Z,0.00
2018-08-23T00:13:41.198Z,0.00
2018-08-23T00:15:33.931Z,0.00
2018-08-23T00:16:33.867Z,0.00
2018-08-23T00:18:26.623Z,0.00
2018-08-23T00:19:26.544Z,0.00
2018-08-23T00:21:19.311Z,0.00
2018-08-23T00:22:19.225Z,0.00
2018-08-23T00:24:11.984Z,0.00
2018-08-23T00:25:11.912Z,0.00
2018-08-23T00:27:04.707Z,0.00
2018-08-23T00:28:04.595Z,0.00
2018-08-23T00:29:57.349Z,0.00
2018-08-23T00:30:57.278Z,0.00
2018-08-23T00:32:50.302Z,0.00
2018-08-23T00:33:50.219Z,0.00
2018-08-23T00:35:43.217Z,0.00
2018-08-23T00:36:43.150Z,0.00
2018-08-23T00:38:35.917Z,0.00
2018-08-23T00:39:35.832Z,0.00
2018-08-23T00:41:28.603Z,0.00
2018-08-23T00:42:28.517Z,0.00
2018-08-23T00:44:21.274Z,0.00
2018-08-23T00:45:21.203Z,0.00
2018-08-23T00:47:13.970Z,0.00
2018-08-23T00:48:13.889Z,0.00
2018-08-23T00:50:06.697Z,0.00
2018-08-23T00:51:06.578Z,0.00
2018-08-23T00:52:59.347Z,0.00
2018-08-23T00:53:59.264Z,0.00
2018-08-23T00:55:52.274Z,0.00
2018-08-23T00:56:52.201Z,0.00
2018-08-23T00:58:45.275Z,0.00
2018-08-23T00:59:45.195Z,0.00
2018-08-23T01:01:37.962Z,0.00
2018-08-23T01:02:37.878Z,0.00
2018-08-23T01:04:30.638Z,0.00
2018-08-23T01:05:30.561Z,0.00
2018-08-23T01:07:23.330Z,0.00
2018-08-23T01:08:23.247Z,0.00
2018-08-23T01:10:16.002Z,0.00
2018-08-23T01:11:15.930Z,0.00
2018-08-23T01:13:08.893Z,0.00
2018-08-23T01:14:08.807Z,0.00
2018-08-23T01:16:01.577Z,0.00
2018-08-23T01:17:01.528Z,0.00
2018-08-23T01:18:54.276Z,0.00
2018-08-23T01:19:54.193Z,0.00
2018-08-23T01:21:47.246Z,0.00
2018-08-23T01:22:47.144Z,0.00
2018-08-23T01:24:39.910Z,0.00
2018-08-23T01:25:39.835Z,0.00
2018-08-23T01:27:32.610Z,0.00
2018-08-23T01:28:32.526Z,0.00
2018-08-23T01:30:25.293Z,0.00
2018-08-23T01:31:25.223Z,0.00
2018-08-23T01:33:17.995Z,0.00
2018-08-23T01:34:17.906Z,0.00
2018-08-23T01:36:10.663Z,0.00
2018-08-23T01:37:10.588Z,0.00
2018-08-23T01:39:03.362Z,0.00
2018-08-23T01:40:03.279Z,0.00
2018-08-23T01:41:56.047Z,0.00
2018-08-23T01:42:55.964Z,0.00
2018-08-23T01:44:48.964Z,0.00
2018-08-23T01:45:48.887Z,0.00
2018-08-23T01:47:41.657Z,0.00
2018-08-23T01:48:41.576Z,0.00
2018-08-23T01:50:34.332Z,0.00
2018-08-23T01:51:34.257Z,0.00
2018-08-23T01:53:27.030Z,0.00
2018-08-23T01:54:26.945Z,0.00
2018-08-23T01:56:19.702Z,0.00
2018-08-23T01:57:19.629Z,0.00
2018-08-23T01:59:12.394Z,0.00
2018-08-23T02:00:12.312Z,0.00
2018-08-23T02:02:05.094Z,0.00
2018-08-23T02:03:04.995Z,0.00
2018-08-23T02:04:57.753Z,0.00
2018-08-23T02:05:57.677Z,0.00
2018-08-23T02:07:50.685Z,0.00
2018-08-23T02:08:50.601Z,0.00
2018-08-23T02:10:43.905Z,0.00
2018-08-23T02:11:43.832Z,0.00
2018-08-23T02:13:36.596Z,0.00
2018-08-23T02:14:36.516Z,0.00
2018-08-23T02:16:29.274Z,0.00
2018-08-23T02:17:29.200Z,0.00
2018-08-23T02:19:22.162Z,0.00
2018-08-23T02:20:22.082Z,0.00
2018-08-23T02:22:14.846Z,0.00
2018-08-23T02:23:14.761Z,0.00
2018-08-23T02:25:07.526Z,0.00
2018-08-23T02:26:07.446Z,0.00
2018-08-23T02:28:00.412Z,0.00
2018-08-23T02:29:00.330Z,0.00
2018-08-23T02:30:53.281Z,0.00
2018-08-23T02:31:53.204Z,0.00
2018-08-23T02:33:46.268Z,0.00
2018-08-23T02:34:46.195Z,0.00
2018-08-23T02:36:39.182Z,0.00
2018-08-23T02:37:39.111Z,0.00
2018-08-23T02:39:31.884Z,0.00
2018-08-23T02:40:31.798Z,0.00
2018-08-23T02:42:24.549Z,0.00
2018-08-23T02:43:24.478Z,0.00
2018-08-23T02:45:17.253Z,0.00
2018-08-23T02:46:17.168Z,0.00
2018-08-23T02:48:09.934Z,0.00
2018-08-23T02:49:09.851Z,0.00
2018-08-23T02:51:02.803Z,0.00
2018-08-23T02:52:02.741Z,0.00
2018-08-23T02:53:55.494Z,0.00
2018-08-23T02:54:55.410Z,0.00
2018-08-23T02:56:48.426Z,0.00
2018-08-23T02:57:48.351Z,0.00
2018-08-23T02:59:41.121Z,0.00
2018-08-23T03:00:41.036Z,0.00
2018-08-23T03:02:33.795Z,0.00
2018-08-23T03:03:33.721Z,0.00
2018-08-23T03:05:26.494Z,0.00
2018-08-23T03:06:26.417Z,0.00
2018-08-23T03:08:19.202Z,0.00
2018-08-23T03:09:19.091Z,0.00
2018-08-23T03:11:11.850Z,0.00
2018-08-23T03:12:11.777Z,0.00
2018-08-23T03:14:04.577Z,0.00
2018-08-23T03:15:04.467Z,0.00
2018-08-23T03:16:57.222Z,0.00
2018-08-23T03:17:57.146Z,0.00
2018-08-23T03:19:50.145Z,0.00
2018-08-23T03:20:50.061Z,0.00
2018-08-23T03:22:42.822Z,0.00
2018-08-23T03:23:42.743Z,0.00
2018-08-23T03:25:35.512Z,0.00
2018-08-23T03:26:35.428Z,0.00
2018-08-23T03:28:28.200Z,0.00
2018-08-23T03:29:28.117Z,0.00
2018-08-23T03:31:20.884Z,0.00
2018-08-23T03:32:20.808Z,0.00
2018-08-23T03:34:13.591Z,0.00
2018-08-23T03:35:13.510Z,0.00
2018-08-23T03:37:06.265Z,0.00
2018-08-23T03:38:06.191Z,0.00
2018-08-23T03:39:58.953Z,0.00
2018-08-23T03:40:58.871Z,0.00
2018-08-23T03:42:51.862Z,0.00
2018-08-23T03:43:51.792Z,0.00
2018-08-23T03:45:45.005Z,0.00
2018-08-23T03:46:44.923Z,0.00
2018-08-23T03:47:44.852Z,0.00
2018-08-23T03:48:44.782Z,0.00
2018-08-23T03:49:44.711Z,0.00
2018-08-23T03:50:44.641Z,0.00
2018-08-23T03:51:44.571Z,0.00
2018-08-23T03:52:44.500Z,0.00
2018-08-23T03:53:44.428Z,0.00
2018-08-23T03:54:44.357Z,0.00
2018-08-23T03:55:44.288Z,0.00
2018-08-23T03:56:44.219Z,0.00
2018-08-23T03:57:44.148Z,0.00
2018-08-23T03:58:44.074Z,0.00
2018-08-23T03:59:44.006Z,0.00
2018-08-23T04:00:43.936Z,0.00
2018-08-23T04:01:43.866Z,0.00
2018-08-23T04:02:43.799Z,0.00
2018-08-23T04:03:43.723Z,0.00
2018-08-23T04:04:43.655Z,4.00
2018-08-23T04:05:43.580Z,4.00
2018-08-23T04:06:43.513Z,0.00
2018-08-23T04:07:43.440Z,4.00
2018-08-23T04:08:43.382Z,4.00
2018-08-23T04:09:43.300Z,4.00
2018-08-23T04:10:43.231Z,8.00
2018-08-23T04:11:43.161Z,8.00
2018-08-23T04:12:43.086Z,8.00
2018-08-23T04:13:43.016Z,12.00
2018-08-23T04:14:42.944Z,12.00
2018-08-23T04:15:42.874Z,12.00
2018-08-23T04:16:42.803Z,12.00
2018-08-23T04:17:42.733Z,16.00
2018-08-23T04:18:42.663Z,20.00
2018-08-23T04:19:42.595Z,20.00
2018-08-23T04:20:42.523Z,20.00
2018-08-23T04:21:42.450Z,28.00
2018-08-23T04:22:42.411Z,28.00
2018-08-23T04:23:42.305Z,36.00
2018-08-23T04:24:42.238Z,40.00
2018-08-23T04:25:42.166Z,44.00
2018-08-23T04:26:42.094Z,48.00
2018-08-23T04:27:42.022Z,52.00
2018-08-23T04:28:41.956Z,60.00
2018-08-23T04:29:41.881Z,68.00
2018-08-23T04:30:41.810Z,72.00
2018-08-23T04:31:41.739Z,76.00
2018-08-23T04:32:41.669Z,84.00
2018-08-23T04:33:41.597Z,92.00
2018-08-23T04:34:41.531Z,96.00
2018-08-23T04:35:41.456Z,108.00
2018-08-23T04:36:41.385Z,112.00
2018-08-23T04:37:41.315Z,120.00
2018-08-23T04:38:41.244Z,132.00
2018-08-23T04:39:41.172Z,140.00
2018-08-23T04:40:41.103Z,152.00
2018-08-23T04:41:41.032Z,160.00
2018-08-23T04:42:40.975Z,168.00
2018-08-23T04:43:40.888Z,180.00
2018-08-23T04:44:40.817Z,184.00
2018-08-23T04:45:40.747Z,192.00
2018-08-23T04:46:40.678Z,204.00
2018-08-23T04:47:40.608Z,212.00
2018-08-23T04:48:40.536Z,224.00
2018-08-23T04:49:40.463Z,232.00
2018-08-23T04:50:40.397Z,244.00
2018-08-23T04:51:40.340Z,252.00
2018-08-23T04:52:40.251Z,264.00
2018-08-23T04:53:40.179Z,276.00
2018-08-23T04:54:40.108Z,284.00
2018-08-23T04:55:40.037Z,292.00
2018-08-23T04:56:39.967Z,304.00
2018-08-23T04:57:39.897Z,316.00
2018-08-23T04:58:39.830Z,328.00
2018-08-23T04:59:39.754Z,340.00
2018-08-23T05:00:39.681Z,352.00
2018-08-23T05:01:39.613Z,368.00
2018-08-23T05:02:39.538Z,388.00
2018-08-23T05:03:39.470Z,404.00
2018-08-23T05:04:39.398Z,424.00
2018-08-23T05:05:39.329Z,440.00
2018-08-23T05:06:39.258Z,456.00
2018-08-23T05:07:39.184Z,472.00
2018-08-23T05:08:39.113Z,492.00
2018-08-23T05:09:39.045Z,508.00
2018-08-23T05:10:38.964Z,528.00
2018-08-23T05:11:38.901Z,540.00
2018-08-23T05:12:38.828Z,560.00
2018-08-23T05:13:38.756Z,572.00
2018-08-23T05:14:38.690Z,592.00
2018-08-23T05:15:38.619Z,616.00
2018-08-23T05:16:38.546Z,636.00
2018-08-23T05:17:38.480Z,656.00
2018-08-23T05:18:38.402Z,680.00
2018-08-23T05:19:38.333Z,704.00
2018-08-23T05:20:38.262Z,724.00
2018-08-23T05:21:38.202Z,748.00
2018-08-23T05:22:38.119Z,768.00
2018-08-23T05:23:38.049Z,788.00
2018-08-23T05:24:37.987Z,808.00
2018-08-23T05:25:37.907Z,824.00
2018-08-23T05:26:37.838Z,844.00
2018-08-23T05:27:37.765Z,872.00
2018-08-23T05:28:37.696Z,900.00
2018-08-23T05:29:37.625Z,928.00
2018-08-23T05:30:37.557Z,952.00
2018-08-23T05:31:37.484Z,976.00
2018-08-23T05:32:37.424Z,996.00
2018-08-23T05:33:37.338Z,1020.00
2018-08-23T05:34:37.303Z,1040.00
2018-08-23T05:35:37.197Z,1060.00
2018-08-23T05:36:37.126Z,1080.00
2018-08-23T05:37:37.055Z,1100.00
2018-08-23T05:38:36.985Z,1120.00
2018-08-23T05:39:36.913Z,1140.00
2018-08-23T05:40:36.847Z,1160.00
2018-08-23T05:41:36.771Z,1176.00
2018-08-23T05:42:36.702Z,1192.00
2018-08-23T05:43:36.633Z,1204.00
2018-08-23T05:44:36.565Z,1224.00
2018-08-23T05:45:36.493Z,1244.00
2018-08-23T05:46:36.421Z,1260.00
2018-08-23T05:47:36.396Z,1284.00
2018-08-23T05:48:36.278Z,1308.00
2018-08-23T05:49:36.208Z,1328.00
2018-08-23T05:50:36.135Z,1356.00
2018-08-23T05:51:36.067Z,1376.00
2018-08-23T05:52:35.994Z,1392.00
2018-08-23T05:53:35.925Z,1404.00
2018-08-23T05:54:35.851Z,1416.00
2018-08-23T05:55:35.781Z,1428.00
2018-08-23T05:56:35.709Z,1448.00
2018-08-23T05:57:35.639Z,1472.00
2018-08-23T05:58:35.563Z,1496.00
2018-08-23T05:59:35.497Z,1512.00
2018-08-23T06:00:35.426Z,1532.00
2018-08-23T06:01:35.354Z,1548.00
2018-08-23T06:02:35.291Z,1572.00
2018-08-23T06:03:35.213Z,1592.00
2018-08-23T06:04:35.144Z,1612.00
2018-08-23T06:05:35.072Z,1632.00
2018-08-23T06:06:35.002Z,1648.00
2018-08-23T06:07:34.931Z,1668.00
2018-08-23T06:08:34.860Z,1684.00
2018-08-23T06:09:34.789Z,1700.00
2018-08-23T06:10:34.714Z,1712.00
2018-08-23T06:11:34.660Z,1728.00
2018-08-23T06:12:34.577Z,1744.00
2018-08-23T06:13:34.508Z,1760.00
2018-08-23T06:14:34.436Z,1780.00
2018-08-23T06:15:34.369Z,1804.00
2018-08-23T06:16:34.294Z,1820.00
2018-08-23T06:17:34.224Z,1848.00
2018-08-23T06:18:34.155Z,1864.00
2018-08-23T06:19:34.082Z,1888.00
2018-08-23T06:20:34.013Z,1908.00
2018-08-23T06:21:33.941Z,1924.00
2018-08-23T06:22:33.867Z,1936.00
2018-08-23T06:23:33.802Z,1956.00
2018-08-23T06:24:33.736Z,1968.00
2018-08-23T06:25:33.659Z,1984.00
2018-08-23T06:26:33.589Z,2004.00
2018-08-23T06:27:33.646Z,2032.00
2018-08-23T06:28:33.448Z,2048.00
2018-08-23T06:29:33.377Z,2064.00
2018-08-23T06:30:33.317Z,2080.00
2018-08-23T06:31:33.237Z,2104.00
2018-08-23T06:32:33.166Z,2124.00
2018-08-23T06:33:33.189Z,2144.00
2018-08-23T06:34:33.025Z,2164.00
2018-08-23T06:35:32.991Z,2176.00
2018-08-23T06:36:32.889Z,2196.00
2018-08-23T06:37:32.824Z,2216.00
2018-08-23T06:38:32.747Z,2240.00
2018-08-23T06:39:32.674Z,2260.00
2018-08-23T06:40:32.604Z,2280.00
2018-08-23T06:41:32.533Z,2304.00
2018-08-23T06:42:32.461Z,2324.00
2018-08-23T06:43:32.392Z,2348.00
2018-08-23T06:44:32.337Z,2376.00
2018-08-23T06:45:32.251Z,2396.00
2018-08-23T06:46:32.182Z,2424.00
2018-08-23T06:47:32.113Z,2448.00
2018-08-23T06:48:32.042Z,2464.00
2018-08-23T06:49:31.973Z,2476.00
2018-08-23T06:50:31.905Z,2488.00
2018-08-23T06:51:31.836Z,2512.00
2018-08-23T06:52:31.761Z,2544.00
2018-08-23T06:53:31.690Z,2568.00
2018-08-23T06:54:31.616Z,2600.00
2018-08-23T06:55:31.560Z,2612.00
2018-08-23T06:56:31.480Z,2624.00
2018-08-23T06:57:31.413Z,2632.00
2018-08-23T06:58:31.339Z,2640.00
2018-08-23T06:59:31.270Z,2668.00
2018-08-23T07:00:31.200Z,2688.00
2018-08-23T07:01:31.130Z,2720.00
2018-08-23T07:02:31.059Z,2752.00
2018-08-23T07:03:30.992Z,2768.00
2018-08-23T07:04:30.920Z,2788.00
2018-08-23T07:05:30.920Z,2800.00
2018-08-23T07:06:30.783Z,2812.00
2018-08-23T07:07:30.718Z,2824.00
2018-08-23T07:08:30.645Z,2860.00
2018-08-23T07:09:30.575Z,2900.00
2018-08-23T07:10:30.550Z,2952.00
2018-08-23T07:11:30.437Z,2996.00
2018-08-23T07:12:30.364Z,3036.00
2018-08-23T07:13:30.296Z,3072.00
2018-08-23T07:14:30.222Z,3088.00
2018-08-23T07:15:30.161Z,3108.00
2018-08-23T07:16:30.087Z,3120.00
2018-08-23T07:17:30.079Z,3144.00
2018-08-23T07:18:29.945Z,3184.00
2018-08-23T07:19:29.874Z,3232.00
2018-08-23T07:20:29.806Z,3268.00
2018-08-23T07:21:29.736Z,3304.00
2018-08-23T07:22:29.726Z,3336.00
2018-08-23T07:23:29.635Z,3380.00
2018-08-23T07:24:29.528Z,3408.00
2018-08-23T07:25:29.458Z,3428.00
2018-08-23T07:26:29.391Z,3448.00
2018-08-23T07:27:29.323Z,3468.00
2018-08-23T07:28:29.249Z,3500.00
2018-08-23T07:29:29.183Z,3544.00
2018-08-23T07:30:29.113Z,3576.00
2018-08-23T07:31:29.053Z,3604.00
2018-08-23T07:32:28.972Z,3608.00
2018-08-23T07:33:28.906Z,3624.00
2018-08-23T07:34:28.834Z,3644.00
2018-08-23T07:35:28.774Z,3692.00
2018-08-23T07:36:28.696Z,3728.00
2018-08-23T07:37:28.628Z,3740.00
2018-08-23T07:38:28.562Z,3752.00
2018-08-23T07:39:28.488Z,3780.00
2018-08-23T07:40:28.419Z,3792.00
2018-08-23T07:41:28.346Z,3796.00
2018-08-23T07:42:28.281Z,3796.00
2018-08-23T07:43:28.213Z,3824.00
2018-08-23T07:44:28.146Z,3848.00
2018-08-23T07:45:28.077Z,3864.00
2018-08-23T07:46:28.004Z,3884.00
2018-08-23T07:47:27.940Z,3908.00
2018-08-23T07:48:27.916Z,3952.00
2018-08-23T07:49:27.800Z,3972.00
2018-08-23T07:50:27.729Z,3988.00
2018-08-23T07:51:27.660Z,4060.00
2018-08-23T07:52:27.629Z,4120.00
2018-08-23T07:53:27.595Z,4192.00
2018-08-23T07:54:27.457Z,4256.00
2018-08-23T07:55:27.386Z,4324.00
2018-08-23T07:56:27.318Z,4380.00
2018-08-23T07:57:27.248Z,4428.00
2018-08-23T07:58:27.178Z,4496.00
2018-08-23T07:59:27.113Z,4548.00
2018-08-23T08:00:27.044Z,4592.00
2018-08-23T08:01:26.973Z,4640.00
2018-08-23T08:02:26.905Z,4728.00
2018-08-23T08:03:26.840Z,4864.00
2018-08-23T08:04:26.767Z,4856.00
2018-08-23T08:05:26.699Z,4896.00
2018-08-23T08:06:26.629Z,4952.00
2018-08-23T08:07:26.567Z,4996.00
2018-08-23T08:08:26.497Z,5028.00
2018-08-23T08:09:26.428Z,5088.00
2018-08-23T08:10:26.359Z,5184.00
2018-08-23T08:11:26.289Z,5248.00
2018-08-23T08:12:26.236Z,5268.00
2018-08-23T08:13:26.148Z,5344.00
2018-08-23T08:14:26.082Z,5460.00
2018-08-23T08:15:26.015Z,5584.00
2018-08-23T08:16:25.949Z,5708.00
2018-08-23T08:17:25.879Z,5704.00
2018-08-23T08:18:25.812Z,5808.00
2018-08-23T08:19:25.742Z,5840.00
2018-08-23T08:20:25.673Z,5948.00
2018-08-23T08:21:25.604Z,6068.00
2018-08-23T08:22:25.540Z,6028.00
2018-08-23T08:23:25.465Z,6500.00
2018-08-23T08:24:25.402Z,6588.00
2018-08-23T08:25:25.332Z,6652.00
2018-08-23T08:26:25.269Z,6520.00
2018-08-23T08:27:25.196Z,6568.00
2018-08-23T08:28:25.128Z,6688.00
2018-08-23T08:29:25.066Z,6748.00
2018-08-23T08:30:24.990Z,7184.00
2018-08-23T08:31:24.924Z,7892.00
2018-08-23T08:32:24.853Z,7072.00
2018-08-23T08:33:24.788Z,6488.00
2018-08-23T08:34:24.721Z,6760.00
2018-08-23T08:35:24.653Z,6844.00
2018-08-23T08:36:24.587Z,6528.00
2018-08-23T08:37:24.519Z,6464.00
2018-08-23T08:38:24.454Z,6612.00
2018-08-23T08:39:24.383Z,6924.00
2018-08-23T08:40:24.331Z,7180.00
2018-08-23T08:41:24.249Z,7480.00
2018-08-23T08:42:24.180Z,7588.00
2018-08-23T08:43:24.114Z,7728.00
2018-08-23T08:44:24.047Z,8196.00
2018-08-23T08:45:23.975Z,8688.00
2018-08-23T08:46:23.911Z,9280.00
2018-08-23T08:47:23.846Z,9872.00
2018-08-23T08:48:23.777Z,8756.00
2018-08-23T08:49:23.715Z,8488.00
2018-08-23T08:50:23.658Z,8332.00
2018-08-23T08:51:23.580Z,8988.00
2018-08-23T08:52:23.511Z,8712.00
2018-08-23T08:53:23.443Z,10796.00
2018-08-23T08:54:23.379Z,9076.00
2018-08-23T08:55:23.309Z,9596.00
2018-08-23T08:56:23.252Z,11068.00
2018-08-23T08:57:23.178Z,9872.00
2018-08-23T08:58:23.114Z,13576.00
2018-08-23T08:59:23.044Z,17664.00
2018-08-23T09:00:22.977Z,19456.00
2018-08-23T09:01:22.911Z,11624.00
2018-08-23T09:02:22.844Z,12748.00
2018-08-23T09:03:22.780Z,11632.00
2018-08-23T09:04:22.717Z,11232.00
2018-08-23T09:05:22.649Z,13284.00
2018-08-23T09:06:22.581Z,11820.00
2018-08-23T09:07:22.513Z,11596.00
2018-08-23T09:08:22.444Z,13292.00
2018-08-23T09:09:22.384Z,13496.00
2018-08-23T09:10:22.331Z,13892.00
2018-08-23T09:11:22.252Z,16032.00
2018-08-23T09:12:22.184Z,11124.00
2018-08-23T09:13:22.136Z,12012.00
2018-08-23T09:14:22.082Z,14640.00
2018-08-23T09:15:21.989Z,15612.00
2018-08-23T09:16:21.922Z,12952.00
2018-08-23T09:17:21.857Z,11804.00
2018-08-23T09:18:21.793Z,12892.00
2018-08-23T09:19:21.727Z,17408.00
2018-08-23T09:20:21.687Z,15284.00
2018-08-23T09:21:21.600Z,12472.00
2018-08-23T09:22:21.531Z,13916.00
2018-08-23T09:23:21.469Z,15948.00
2018-08-23T09:24:21.399Z,15420.00
2018-08-23T09:25:21.453Z,17120.00
2018-08-23T09:26:21.274Z,31392.00
2018-08-23T09:27:21.218Z,37600.00
2018-08-23T09:28:21.150Z,27872.00
2018-08-23T09:29:21.084Z,16088.00
2018-08-23T09:30:21.013Z,27200.00
2018-08-23T09:31:20.969Z,21856.00
2018-08-23T09:32:20.953Z,16768.00
2018-08-23T09:33:20.819Z,16992.00
2018-08-23T09:34:20.753Z,31008.00
2018-08-23T09:35:20.690Z,19584.00
2018-08-23T09:36:20.625Z,39520.00
2018-08-23T09:37:20.560Z,28352.00
2018-08-23T09:38:20.499Z,7864.00
2018-08-23T09:39:20.433Z,15424.00
2018-08-23T09:40:20.373Z,41824.00
2018-08-23T09:41:20.305Z,51360.00
2018-08-23T09:42:20.245Z,26496.00
2018-08-23T09:43:20.180Z,44896.00
2018-08-23T09:44:20.116Z,35264.00
2018-08-23T09:45:20.049Z,38944.00
2018-08-23T09:46:19.987Z,46176.00
2018-08-23T09:47:19.944Z,37024.00
2018-08-23T09:48:19.860Z,48224.00
2018-08-23T09:49:19.798Z,27488.00
2018-08-23T09:50:19.806Z,32224.00
2018-08-23T09:51:19.678Z,23904.00
2018-08-23T09:52:19.617Z,14344.00
2018-08-23T09:53:19.548Z,29792.00
2018-08-23T09:54:19.490Z,15688.00
2018-08-23T09:55:19.425Z,14344.00
2018-08-23T09:56:19.359Z,22432.00
2018-08-23T09:57:19.313Z,18816.00
2018-08-23T09:58:19.237Z,15172.00
2018-08-23T09:59:19.176Z,11632.00
2018-08-23T10:00:19.113Z,12476.00
2018-08-23T10:01:19.049Z,13416.00
2018-08-23T10:02:18.987Z,11480.00
2018-08-23T10:03:18.925Z,14080.00
2018-08-23T10:04:18.927Z,42464.00
2018-08-23T10:05:18.803Z,28288.00
2018-08-23T10:06:18.737Z,22848.00
2018-08-23T10:07:18.672Z,15736.00
2018-08-23T10:08:18.621Z,45504.00
2018-08-23T10:09:18.550Z,22240.00
2018-08-23T10:10:18.488Z,13880.00
2018-08-23T10:11:18.481Z,13436.00
2018-08-23T10:12:18.367Z,15252.00
2018-08-23T10:13:18.300Z,12288.00
2018-08-23T10:14:18.242Z,10576.00
2018-08-23T10:15:18.177Z,17056.00
2018-08-23T10:16:18.112Z,15180.00
2018-08-23T10:17:18.049Z,11848.00
2018-08-23T10:18:17.986Z,14188.00
2018-08-23T10:19:17.925Z,24352.00
2018-08-23T10:20:17.862Z,13936.00
2018-08-23T10:21:17.800Z,21440.00
2018-08-23T10:22:17.737Z,32448.00
2018-08-23T10:23:17.676Z,56576.00
2018-08-23T10:24:17.609Z,19616.00
2018-08-23T10:25:17.550Z,48192.00
2018-08-23T10:26:17.489Z,33088.00
2018-08-23T10:27:17.423Z,23232.00
2018-08-23T10:28:17.360Z,5464.00
2018-08-23T10:29:17.299Z,19712.00
2018-08-23T10:30:17.235Z,13900.00
2018-08-23T10:31:17.171Z,10148.00
2018-08-23T10:32:17.293Z,8396.00
2018-08-23T10:33:17.045Z,7760.00
2018-08-23T10:34:16.986Z,7948.00
2018-08-23T10:35:16.918Z,8444.00
2018-08-23T10:36:16.858Z,7512.00
2018-08-23T10:37:16.792Z,7184.00
2018-08-23T10:38:16.838Z,7312.00
2018-08-23T10:39:16.667Z,7280.00
2018-08-23T10:40:16.608Z,7312.00
2018-08-23T10:41:16.538Z,6884.00
2018-08-23T10:42:16.477Z,6544.00
2018-08-23T10:43:16.416Z,6328.00
2018-08-23T10:44:16.404Z,6108.00
2018-08-23T10:45:16.294Z,6068.00
2018-08-23T10:46:16.221Z,6092.00
2018-08-23T10:47:16.178Z,6288.00
2018-08-23T10:48:16.094Z,6832.00
2018-08-23T10:49:16.034Z,6840.00
2018-08-23T10:50:15.968Z,6488.00
2018-08-23T10:51:15.903Z,6660.00
2018-08-23T10:52:15.834Z,7216.00
2018-08-23T10:53:15.773Z,7808.00
2018-08-23T10:54:15.711Z,7564.00
2018-08-23T10:55:15.646Z,6244.00
2018-08-23T10:56:15.584Z,7048.00
2018-08-23T10:57:15.517Z,7284.00
2018-08-23T10:58:15.454Z,6440.00
2018-08-23T10:59:15.391Z,5800.00
2018-08-23T11:00:15.323Z,5784.00
2018-08-23T11:01:15.262Z,6036.00
2018-08-23T11:02:15.195Z,6192.00
2018-08-23T11:03:15.146Z,5924.00
2018-08-23T11:04:15.069Z,5716.00
2018-08-23T11:05:15.002Z,5568.00
2018-08-23T11:06:14.939Z,5460.00
2018-08-23T11:07:14.879Z,5504.00
2018-08-23T11:08:14.809Z,5628.00
2018-08-23T11:09:14.743Z,5828.00
2018-08-23T11:10:14.679Z,6032.00
2018-08-23T11:11:14.614Z,6988.00
2018-08-23T11:12:14.554Z,6968.00
2018-08-23T11:13:14.486Z,6572.00
2018-08-23T11:14:14.418Z,6684.00
2018-08-23T11:15:14.361Z,6200.00
2018-08-23T11:16:14.296Z,6732.00
2018-08-23T11:17:14.309Z,6812.00
2018-08-23T11:18:14.165Z,6652.00
2018-08-23T11:19:14.100Z,6916.00
2018-08-23T11:20:14.035Z,7496.00
2018-08-23T11:21:13.974Z,8244.00
2018-08-23T11:22:13.908Z,8968.00
2018-08-23T11:23:13.877Z,11716.00
2018-08-23T11:24:13.782Z,13072.00
2018-08-23T11:25:13.712Z,12828.00
2018-08-23T11:26:13.646Z,11096.00
2018-08-23T11:27:13.586Z,11928.00
2018-08-23T11:28:13.519Z,10408.00
2018-08-23T11:29:13.460Z,17408.00
2018-08-23T11:30:13.390Z,17824.00
2018-08-23T11:31:13.327Z,11304.00
2018-08-23T11:32:13.265Z,8988.00
2018-08-23T11:33:13.200Z,14168.00
2018-08-23T11:34:13.146Z,12656.00
2018-08-23T11:35:13.088Z,8968.00
2018-08-23T11:36:13.010Z,7984.00
2018-08-23T11:37:12.946Z,10464.00
2018-08-23T11:38:12.882Z,24896.00
2018-08-23T11:39:12.818Z,5176.00
2018-08-23T11:40:12.757Z,6088.00
2018-08-23T11:41:12.688Z,5460.00
2018-08-23T11:42:12.627Z,5356.00
2018-08-23T11:43:12.556Z,5248.00
2018-08-23T11:44:12.498Z,5740.00
2018-08-23T11:45:12.452Z,5624.00
2018-08-23T11:46:12.370Z,5360.00
2018-08-23T11:47:12.306Z,5716.00
2018-08-23T11:48:12.249Z,6864.00
2018-08-23T11:49:12.179Z,6000.00
2018-08-23T11:50:12.120Z,6104.00
2018-08-23T11:51:12.050Z,9180.00
2018-08-23T11:52:11.987Z,5448.00
2018-08-23T11:53:11.970Z,6112.00
2018-08-23T11:54:11.865Z,6676.00
2018-08-23T11:55:11.791Z,4972.00
2018-08-23T11:56:11.735Z,5080.00
2018-08-23T11:57:11.667Z,5092.00
2018-08-23T11:58:11.606Z,5348.00
2018-08-23T11:59:11.571Z,9044.00
2018-08-23T12:00:11.478Z,7296.00
2018-08-23T12:01:11.411Z,6388.00
2018-08-23T12:02:11.347Z,7996.00
2018-08-23T12:03:11.285Z,9220.00
2018-08-23T12:04:11.219Z,6844.00
2018-08-23T12:05:11.155Z,6812.00
2018-08-23T12:06:11.100Z,6144.00
2018-08-23T12:07:11.034Z,5684.00
2018-08-23T12:08:10.971Z,6456.00
2018-08-23T12:09:10.899Z,6848.00
2018-08-23T12:10:10.831Z,7156.00
2018-08-23T12:11:10.771Z,8276.00
2018-08-23T12:12:10.708Z,16320.00
2018-08-23T12:13:10.645Z,16512.00
2018-08-23T12:14:10.583Z,9328.00
2018-08-23T12:15:10.518Z,7120.00
2018-08-23T12:16:10.452Z,10476.00
2018-08-23T12:17:10.389Z,8660.00
2018-08-23T12:18:10.331Z,10212.00
2018-08-23T12:19:10.263Z,16428.00
2018-08-23T12:20:10.198Z,9604.00
2018-08-23T12:21:10.132Z,8204.00
2018-08-23T12:22:10.074Z,9436.00
2018-08-23T12:23:10.006Z,7392.00
2018-08-23T12:24:09.944Z,8264.00
2018-08-23T12:25:09.885Z,7012.00
2018-08-23T12:26:09.840Z,7468.00
2018-08-23T12:27:09.756Z,7060.00
2018-08-23T12:28:09.693Z,11328.00
2018-08-23T12:29:09.627Z,8708.00
2018-08-23T12:30:09.563Z,6664.00
2018-08-23T12:31:09.497Z,6912.00
2018-08-23T12:32:09.437Z,6268.00
2018-08-23T12:33:09.374Z,6232.00
2018-08-23T12:34:09.310Z,7128.00
2018-08-23T12:35:09.246Z,6868.00
2018-08-23T12:36:09.210Z,6208.00
2018-08-23T12:37:09.116Z,5976.00
2018-08-23T12:38:09.054Z,5868.00
2018-08-23T12:39:09.004Z,5660.00
2018-08-23T12:40:08.929Z,6108.00
2018-08-23T12:41:08.864Z,6992.00
2018-08-23T12:42:08.799Z,7372.00
2018-08-23T12:43:08.738Z,7440.00
2018-08-23T12:44:08.672Z,7900.00
2018-08-23T12:45:08.608Z,8140.00
2018-08-23T12:46:08.548Z,7612.00
2018-08-23T12:47:08.481Z,7028.00
2018-08-23T12:48:08.424Z,7288.00
2018-08-23T12:49:08.355Z,7620.00
2018-08-23T12:50:08.292Z,7784.00
2018-08-23T12:51:08.232Z,7164.00
2018-08-23T12:52:08.161Z,6780.00
2018-08-23T12:53:08.122Z,6612.00
2018-08-23T12:54:08.040Z,9016.00
2018-08-23T12:55:07.971Z,7212.00
2018-08-23T12:56:07.909Z,7072.00
2018-08-23T12:57:07.843Z,7516.00
2018-08-23T12:58:07.779Z,10728.00
2018-08-23T12:59:07.717Z,8868.00
2018-08-23T13:00:07.658Z,9292.00
2018-08-23T13:01:07.591Z,9640.00
2018-08-23T13:02:07.599Z,8828.00
2018-08-23T13:03:07.475Z,8568.00
2018-08-23T13:04:07.491Z,8492.00
2018-08-23T13:05:07.366Z,8656.00
2018-08-23T13:06:07.290Z,8656.00
2018-08-23T13:07:07.207Z,8640.00
2018-08-23T13:08:07.144Z,9340.00
2018-08-23T13:09:07.110Z,9024.00
2018-08-23T13:10:07.017Z,9172.00
2018-08-23T13:11:07.003Z,22432.00
2018-08-23T13:12:06.891Z,15668.00
2018-08-23T13:13:06.828Z,6184.00
2018-08-23T13:14:06.768Z,5968.00
2018-08-23T13:15:06.703Z,6396.00
2018-08-23T13:16:06.645Z,7176.00
2018-08-23T13:17:06.574Z,8412.00
2018-08-23T13:18:06.512Z,20512.00
2018-08-23T13:19:06.447Z,8036.00
2018-08-23T13:20:06.385Z,9080.00
2018-08-23T13:21:06.320Z,10324.00
2018-08-23T13:22:06.261Z,20416.00
2018-08-23T13:23:06.193Z,53920.00
2018-08-23T13:24:06.137Z,49920.00
2018-08-23T13:25:06.068Z,50528.00
2018-08-23T13:26:06.006Z,43648.00
2018-08-23T13:27:05.948Z,37408.00
2018-08-23T13:28:05.881Z,49248.00
2018-08-23T13:29:05.818Z,19744.00
2018-08-23T13:30:05.804Z,26304.00